createdAt,value
2017-01-18T00:00:58.117Z,996.42
2017-01-18T00:02:07.198Z,996.32
2017-01-18T00:03:15.886Z,996.37
2017-01-18T00:04:24.567Z,996.42
2017-01-18T00:05:33.251Z,996.4
2017-01-18T00:06:41.936Z,996.35
2017-01-18T00:07:50.620Z,996.36
2017-01-18T00:08:59.303Z,996.34
2017-01-18T00:10:07.986Z,996.37
2017-01-18T00:11:16.673Z,996.31
2017-01-18T00:12:25.357Z,996.29
2017-01-18T00:13:34.035Z,996.3
2017-01-18T00:14:42.715Z,996.24
2017-01-18T00:15:51.395Z,996.27
2017-01-18T00:17:00.074Z,996.27
2017-01-18T00:18:08.757Z,996.2
2017-01-18T00:19:17.460Z,996.25
2017-01-18T00:20:26.537Z,996.2
2017-01-18T00:21:35.218Z,996.23
2017-01-18T00:22:43.913Z,996.24
2017-01-18T00:23:52.588Z,996.11
2017-01-18T00:25:01.268Z,996.1
2017-01-18T00:26:10.346Z,996.09
2017-01-18T00:27:19.044Z,996.15
2017-01-18T00:28:27.753Z,996.12
2017-01-18T00:29:36.434Z,996.1
2017-01-18T00:30:45.113Z,996.06
2017-01-18T00:31:53.800Z,996.04
2017-01-18T00:33:02.484Z,996.07
2017-01-18T00:34:11.164Z,996.12
2017-01-18T00:35:19.875Z,996.14
2017-01-18T00:36:28.562Z,996.11
2017-01-18T00:37:37.239Z,996.16
2017-01-18T00:38:45.946Z,996.06
2017-01-18T00:39:54.626Z,996.05
2017-01-18T00:41:03.308Z,996.13
2017-01-18T00:42:11.991Z,996.16
2017-01-18T00:43:20.673Z,996.24
2017-01-18T00:44:29.354Z,996.24
2017-01-18T00:45:38.034Z,996.22
2017-01-18T00:46:46.713Z,996.19
2017-01-18T00:47:55.395Z,996.22
2017-01-18T00:49:04.074Z,996.23
2017-01-18T00:50:12.756Z,996.2
2017-01-18T00:51:21.436Z,996.1
2017-01-18T00:52:30.517Z,996.1
2017-01-18T00:53:39.223Z,996.1
2017-01-18T00:54:47.905Z,996.18
2017-01-18T00:55:56.586Z,996.14
2017-01-18T00:57:05.274Z,996.14
2017-01-18T00:58:13.959Z,996.13
2017-01-18T00:59:22.640Z,996.08
2017-01-18T01:00:31.324Z,996.12
2017-01-18T01:01:40.012Z,996.14
2017-01-18T01:02:48.692Z,996.15
2017-01-18T01:03:57.373Z,996.16
2017-01-18T01:05:06.056Z,996.19
2017-01-18T01:06:14.741Z,996.18
2017-01-18T01:07:23.422Z,996.18
2017-01-18T01:08:32.105Z,996.1
2017-01-18T01:09:40.788Z,996.03
2017-01-18T01:10:49.468Z,996.1
2017-01-18T01:11:58.150Z,996.16
2017-01-18T01:13:06.832Z,996.08
2017-01-18T01:14:15.518Z,996
2017-01-18T01:15:24.198Z,996.06
2017-01-18T01:16:32.905Z,996.12
2017-01-18T01:17:41.591Z,996.15
2017-01-18T01:18:50.273Z,996.23
2017-01-18T01:19:58.956Z,996.19
2017-01-18T01:21:08.430Z,996.19
2017-01-18T01:22:17.120Z,996.21
2017-01-18T01:23:25.801Z,996.17
2017-01-18T01:24:34.498Z,996.14
2017-01-18T01:25:43.176Z,996.19
2017-01-18T01:26:51.864Z,996.2
2017-01-18T01:28:00.577Z,996.15
2017-01-18T01:29:09.291Z,996.14
2017-01-18T01:30:17.981Z,996.23
2017-01-18T01:31:26.667Z,996.26
2017-01-18T01:32:35.353Z,996.27
2017-01-18T01:33:44.039Z,996.27
2017-01-18T01:34:52.723Z,996.31
2017-01-18T01:36:01.411Z,996.28
2017-01-18T01:37:10.098Z,996.23
2017-01-18T01:38:18.793Z,996.15
2017-01-18T01:39:27.481Z,996.15
2017-01-18T01:40:36.161Z,996.17
2017-01-18T01:41:44.842Z,996.16
2017-01-18T01:42:53.524Z,996.17
2017-01-18T01:44:02.208Z,996.17
2017-01-18T01:45:10.890Z,996.17
2017-01-18T01:46:19.568Z,996.15
2017-01-18T01:47:28.250Z,996.16
2017-01-18T01:48:36.940Z,996.08
2017-01-18T01:49:45.623Z,996.04
2017-01-18T01:50:54.311Z,996.11
2017-01-18T01:52:02.995Z,996.11
2017-01-18T01:53:11.676Z,996.1
2017-01-18T01:54:20.367Z,996.09
2017-01-18T01:55:29.052Z,996.07
2017-01-18T01:56:37.736Z,996.04
2017-01-18T01:57:46.419Z,995.99
2017-01-18T01:58:55.106Z,995.94
2017-01-18T02:00:03.791Z,995.95
2017-01-18T02:01:12.481Z,995.96
2017-01-18T02:02:21.162Z,995.92
2017-01-18T02:03:29.875Z,995.91
2017-01-18T02:04:38.584Z,995.88
2017-01-18T02:05:47.320Z,995.86
2017-01-18T02:06:56.008Z,995.86
2017-01-18T02:08:04.701Z,995.87
2017-01-18T02:09:13.388Z,995.85
2017-01-18T02:10:22.076Z,995.83
2017-01-18T02:11:30.761Z,995.83
2017-01-18T02:12:39.447Z,995.84
2017-01-18T02:13:48.126Z,995.91
2017-01-18T02:14:56.808Z,995.93
2017-01-18T02:16:05.496Z,995.87
2017-01-18T02:17:14.186Z,995.84
2017-01-18T02:18:22.876Z,995.86
2017-01-18T02:19:31.561Z,995.82
2017-01-18T02:20:40.245Z,995.82
2017-01-18T02:21:48.926Z,995.78
2017-01-18T02:22:57.606Z,995.68
2017-01-18T02:24:06.292Z,995.67
2017-01-18T02:25:14.976Z,995.63
2017-01-18T02:26:23.667Z,995.64
2017-01-18T02:27:32.348Z,995.66
2017-01-18T02:28:41.032Z,995.57
2017-01-18T02:29:49.721Z,995.6
2017-01-18T02:30:58.415Z,995.58
2017-01-18T02:32:07.103Z,995.6
2017-01-18T02:33:15.793Z,995.6
2017-01-18T02:34:24.479Z,995.54
2017-01-18T02:35:33.161Z,995.59
2017-01-18T02:36:41.849Z,995.63
2017-01-18T02:37:50.534Z,995.6
2017-01-18T02:38:59.216Z,995.67
2017-01-18T02:40:07.900Z,995.64
2017-01-18T02:41:16.585Z,995.67
2017-01-18T02:42:25.271Z,995.65
2017-01-18T02:43:33.955Z,995.61
2017-01-18T02:44:42.646Z,995.62
2017-01-18T02:45:51.325Z,995.58
2017-01-18T02:47:00.010Z,995.61
2017-01-18T02:48:08.692Z,995.57
2017-01-18T02:49:17.375Z,995.57
2017-01-18T02:50:26.067Z,995.51
2017-01-18T02:51:34.848Z,995.53
2017-01-18T02:52:43.543Z,995.51
2017-01-18T02:53:52.231Z,995.49
2017-01-18T02:55:00.916Z,995.48
2017-01-18T02:56:09.602Z,995.46
2017-01-18T02:57:18.295Z,995.46
2017-01-18T02:58:26.986Z,995.43
2017-01-18T02:59:35.670Z,995.36
2017-01-18T03:00:44.351Z,995.33
2017-01-18T03:01:53.040Z,995.37
2017-01-18T03:03:01.722Z,995.38
2017-01-18T03:04:10.406Z,995.38
2017-01-18T03:05:19.090Z,995.31
2017-01-18T03:06:27.773Z,995.28
2017-01-18T03:07:36.457Z,995.25
2017-01-18T03:08:45.142Z,995.28
2017-01-18T03:09:53.823Z,995.27
2017-01-18T03:11:02.501Z,995.29
2017-01-18T03:12:11.210Z,995.22
2017-01-18T03:13:19.893Z,995.1
2017-01-18T03:14:28.574Z,995.08
2017-01-18T03:15:37.256Z,995.08
2017-01-18T03:16:45.937Z,995.01
2017-01-18T03:17:54.618Z,995.03
2017-01-18T03:19:03.303Z,995.03
2017-01-18T03:20:11.987Z,995.02
2017-01-18T03:21:20.675Z,995.02
2017-01-18T03:22:29.357Z,995.04
2017-01-18T03:23:38.037Z,995.06
2017-01-18T03:24:46.724Z,995.02
2017-01-18T03:25:55.413Z,994.97
2017-01-18T03:27:04.095Z,994.89
2017-01-18T03:28:12.778Z,994.88
2017-01-18T03:29:21.465Z,994.9
2017-01-18T03:30:30.144Z,994.95
2017-01-18T03:31:38.827Z,994.97
2017-01-18T03:32:47.510Z,994.93
2017-01-18T03:33:56.197Z,994.88
2017-01-18T03:35:04.875Z,994.85
2017-01-18T03:36:13.555Z,994.84
2017-01-18T03:37:22.236Z,994.86
2017-01-18T03:38:30.936Z,994.8
2017-01-18T03:39:39.640Z,994.74
2017-01-18T03:40:48.319Z,994.72
2017-01-18T03:41:56.997Z,994.76
2017-01-18T03:43:05.677Z,994.81
2017-01-18T03:44:14.359Z,994.86
2017-01-18T03:45:23.044Z,994.85
2017-01-18T03:46:31.724Z,994.79
2017-01-18T03:47:40.410Z,994.75
2017-01-18T03:48:49.095Z,994.76
2017-01-18T03:49:57.787Z,994.79
2017-01-18T03:51:06.470Z,994.77
2017-01-18T03:52:15.151Z,994.75
2017-01-18T03:53:23.836Z,994.8
2017-01-18T03:54:32.517Z,994.8
2017-01-18T03:55:41.201Z,994.79
2017-01-18T03:56:49.886Z,994.76
2017-01-18T03:57:58.567Z,994.78
2017-01-18T03:59:07.250Z,994.86
2017-01-18T04:00:16.280Z,994.89
2017-01-18T04:01:24.965Z,994.86
2017-01-18T04:02:33.645Z,994.79
2017-01-18T04:03:42.330Z,994.72
2017-01-18T04:04:51.017Z,994.69
2017-01-18T04:05:59.697Z,994.76
2017-01-18T04:07:08.378Z,994.77
2017-01-18T04:08:17.062Z,994.75
2017-01-18T04:09:25.745Z,994.7
2017-01-18T04:10:34.429Z,994.68
2017-01-18T04:11:43.116Z,994.64
2017-01-18T04:12:51.801Z,994.64
2017-01-18T04:14:00.479Z,994.66
2017-01-18T04:15:09.559Z,994.64
2017-01-18T04:16:18.246Z,994.63
2017-01-18T04:17:26.928Z,994.67
2017-01-18T04:18:35.609Z,994.73
2017-01-18T04:19:44.300Z,994.68
2017-01-18T04:20:52.981Z,994.63
2017-01-18T04:22:01.683Z,994.63
2017-01-18T04:23:10.364Z,994.6
2017-01-18T04:24:19.051Z,994.55
2017-01-18T04:25:27.737Z,994.61
2017-01-18T04:26:36.419Z,994.69
2017-01-18T04:27:45.101Z,994.63
2017-01-18T04:28:58.191Z,994.55
2017-01-18T04:30:06.903Z,994.5
2017-01-18T04:31:15.585Z,994.52
2017-01-18T04:32:24.264Z,994.49
2017-01-18T04:33:32.944Z,994.37
2017-01-18T04:34:41.676Z,994.32
2017-01-18T04:35:50.356Z,994.33
2017-01-18T04:36:59.036Z,994.35
2017-01-18T04:38:08.153Z,994.29
2017-01-18T04:39:16.837Z,994.31
2017-01-18T04:40:25.569Z,994.31
2017-01-18T04:41:34.262Z,994.29
2017-01-18T04:42:42.944Z,994.28
2017-01-18T04:43:51.629Z,994.28
2017-01-18T04:45:00.312Z,994.27
2017-01-18T04:46:09.127Z,994.24
2017-01-18T04:47:17.817Z,994.21
2017-01-18T04:48:26.535Z,994.23
2017-01-18T04:49:35.212Z,994.21
2017-01-18T04:50:43.901Z,994.23
2017-01-18T04:51:52.639Z,994.19
2017-01-18T04:53:01.319Z,994.17
2017-01-18T04:54:09.996Z,994.22
2017-01-18T04:55:18.710Z,994.27
2017-01-18T04:56:27.392Z,994.24
2017-01-18T04:57:36.125Z,994.27
2017-01-18T04:58:44.810Z,994.25
2017-01-18T04:59:53.489Z,994.28
2017-01-18T05:01:02.165Z,994.28
2017-01-18T05:02:10.845Z,994.21
2017-01-18T05:03:19.577Z,994.18
2017-01-18T05:04:28.264Z,994.16
2017-01-18T05:05:36.943Z,994.23
2017-01-18T05:06:45.631Z,994.23
2017-01-18T05:07:54.713Z,994.29
2017-01-18T05:09:03.501Z,994.32
2017-01-18T05:10:12.186Z,994.3
2017-01-18T05:11:20.874Z,994.32
2017-01-18T05:12:29.950Z,994.27
2017-01-18T05:13:38.633Z,994.3
2017-01-18T05:14:47.364Z,994.29
2017-01-18T05:15:56.052Z,994.26
2017-01-18T05:17:05.536Z,994.2
2017-01-18T05:18:14.217Z,994.26
2017-01-18T05:19:22.928Z,994.27
2017-01-18T05:20:32.059Z,994.25
2017-01-18T05:21:41.141Z,994.27
2017-01-18T05:22:49.830Z,994.27
2017-01-18T05:23:58.518Z,994.27
2017-01-18T05:25:07.211Z,994.29
2017-01-18T05:26:16.343Z,994.35
2017-01-18T05:27:25.024Z,994.37
2017-01-18T05:28:33.707Z,994.27
2017-01-18T05:29:42.390Z,994.28
2017-01-18T05:30:51.077Z,994.22
2017-01-18T05:31:59.809Z,994.14
2017-01-18T05:33:08.494Z,994.14
2017-01-18T05:34:17.179Z,994.12
2017-01-18T05:35:25.857Z,994.06
2017-01-18T05:36:34.542Z,994.06
2017-01-18T05:37:43.278Z,993.96
2017-01-18T05:38:51.966Z,993.93
2017-01-18T05:40:00.674Z,993.83
2017-01-18T05:41:09.356Z,993.74
2017-01-18T05:42:18.044Z,993.64
2017-01-18T05:43:26.831Z,993.64
2017-01-18T05:44:35.513Z,993.67
2017-01-18T05:45:44.198Z,993.72
2017-01-18T05:46:52.885Z,993.74
2017-01-18T05:48:01.567Z,993.78
2017-01-18T05:49:10.320Z,993.74
2017-01-18T05:50:19.006Z,993.79
2017-01-18T05:51:27.690Z,993.78
2017-01-18T05:52:36.372Z,993.8
2017-01-18T05:53:45.055Z,993.81
2017-01-18T05:54:53.787Z,993.86
2017-01-18T05:56:02.463Z,993.79
2017-01-18T05:57:11.161Z,993.77
2017-01-18T05:58:19.841Z,993.8
2017-01-18T05:59:28.524Z,993.8
2017-01-18T06:00:37.266Z,993.78
2017-01-18T06:01:45.951Z,993.79
2017-01-18T06:02:54.630Z,993.72
2017-01-18T06:04:03.308Z,993.75
2017-01-18T06:05:11.989Z,993.76
2017-01-18T06:06:20.722Z,993.8
2017-01-18T06:07:29.414Z,993.85
2017-01-18T06:08:38.104Z,993.87
2017-01-18T06:09:46.796Z,993.87
2017-01-18T06:10:55.476Z,993.9
2017-01-18T06:12:04.215Z,993.95
2017-01-18T06:13:12.893Z,994.06
2017-01-18T06:14:21.570Z,994.04
2017-01-18T06:15:30.257Z,994.03
2017-01-18T06:16:38.965Z,994
2017-01-18T06:17:47.697Z,994
2017-01-18T06:18:56.387Z,994.02
2017-01-18T06:20:05.070Z,994
2017-01-18T06:21:13.754Z,993.99
2017-01-18T06:22:22.439Z,994.04
2017-01-18T06:23:31.176Z,993.98
2017-01-18T06:24:39.859Z,993.97
2017-01-18T06:25:48.564Z,994.04
2017-01-18T06:26:57.244Z,994.06
2017-01-18T06:28:05.932Z,994.06
2017-01-18T06:29:14.668Z,994.13
2017-01-18T06:30:23.362Z,994.09
2017-01-18T06:31:32.049Z,994.02
2017-01-18T06:32:40.733Z,994.05
2017-01-18T06:33:49.424Z,994.07
2017-01-18T06:34:58.157Z,994.15
2017-01-18T06:36:06.847Z,994.1
2017-01-18T06:37:15.531Z,994.18
2017-01-18T06:38:24.240Z,994.14
2017-01-18T06:39:32.922Z,994.14
2017-01-18T06:40:41.692Z,994.14
2017-01-18T06:41:50.374Z,994.08
2017-01-18T06:42:59.087Z,994.14
2017-01-18T06:44:07.775Z,994.11
2017-01-18T06:45:16.462Z,994.07
2017-01-18T06:46:25.233Z,994.07
2017-01-18T06:47:33.915Z,994.06
2017-01-18T06:48:42.597Z,993.99
2017-01-18T06:49:51.285Z,994.05
2017-01-18T06:50:59.980Z,994.07
2017-01-18T06:52:08.734Z,994.03
2017-01-18T06:53:17.459Z,994.04
2017-01-18T06:54:26.142Z,994.03
2017-01-18T06:55:34.851Z,994.05
2017-01-18T06:56:43.534Z,994.07
2017-01-18T06:57:52.271Z,994.04
2017-01-18T06:59:00.952Z,993.96
2017-01-18T07:00:09.634Z,993.99
2017-01-18T07:01:18.318Z,993.97
2017-01-18T07:02:26.996Z,993.99
2017-01-18T07:03:35.728Z,993.98
2017-01-18T07:04:44.405Z,993.94
2017-01-18T07:05:53.112Z,993.88
2017-01-18T07:07:01.801Z,993.9
2017-01-18T07:08:10.511Z,993.91
2017-01-18T07:09:19.248Z,993.94
2017-01-18T07:10:27.928Z,993.97
2017-01-18T07:11:36.616Z,993.95
2017-01-18T07:12:45.296Z,993.94
2017-01-18T07:13:53.977Z,994.06
2017-01-18T07:15:02.713Z,994.08
2017-01-18T07:16:11.397Z,994
2017-01-18T07:17:20.082Z,994.02
2017-01-18T07:18:28.763Z,994.08
2017-01-18T07:19:37.465Z,994.14
2017-01-18T07:20:46.203Z,994.15
2017-01-18T07:21:54.888Z,994.15
2017-01-18T07:23:03.571Z,994.16
2017-01-18T07:24:12.255Z,994.16
2017-01-18T07:25:20.986Z,994.12
2017-01-18T07:26:30.021Z,994.03
2017-01-18T07:27:38.704Z,994
2017-01-18T07:28:47.389Z,993.96
2017-01-18T07:29:56.070Z,993.94
2017-01-18T07:31:04.755Z,993.99
2017-01-18T07:32:13.524Z,994.11
2017-01-18T07:33:22.213Z,994.11
2017-01-18T07:34:30.897Z,994.11
2017-01-18T07:35:39.580Z,994.15
2017-01-18T07:36:48.263Z,994.23
2017-01-18T07:37:56.998Z,994.18
2017-01-18T07:39:06.082Z,994.25
2017-01-18T07:40:14.800Z,994.19
2017-01-18T07:41:23.480Z,994.17
2017-01-18T07:42:32.175Z,994.21
2017-01-18T07:43:40.906Z,994.23
2017-01-18T07:44:49.591Z,994.24
2017-01-18T07:45:58.269Z,994.19
2017-01-18T07:47:06.953Z,994.15
2017-01-18T07:48:15.635Z,994.09
2017-01-18T07:49:24.365Z,994.15
2017-01-18T07:50:33.049Z,994.11
2017-01-18T07:51:41.733Z,994.17
2017-01-18T07:52:50.422Z,994.23
2017-01-18T07:53:59.103Z,994.18
2017-01-18T07:55:07.941Z,994.19
2017-01-18T07:56:16.630Z,994.14
2017-01-18T07:57:25.314Z,994.13
2017-01-18T07:58:34.028Z,994.17
2017-01-18T07:59:42.721Z,994.18
2017-01-18T08:00:51.462Z,994.15
2017-01-18T08:02:00.144Z,994.15
2017-01-18T08:03:08.825Z,994.12
2017-01-18T08:04:17.512Z,994.14
2017-01-18T08:05:26.221Z,994.13
2017-01-18T08:06:34.982Z,994.16
2017-01-18T08:07:43.670Z,994.12
2017-01-18T08:08:52.353Z,994.13
2017-01-18T08:10:01.039Z,994.14
2017-01-18T08:11:10.121Z,994.12
2017-01-18T08:12:18.853Z,994.13
2017-01-18T08:13:27.536Z,994.13
2017-01-18T08:14:36.223Z,994.19
2017-01-18T08:15:44.907Z,994.16
2017-01-18T08:16:53.596Z,994.19
2017-01-18T08:18:02.332Z,994.16
2017-01-18T08:19:11.014Z,994.14
2017-01-18T08:20:19.695Z,994.11
2017-01-18T08:21:28.404Z,994.13
2017-01-18T08:22:37.086Z,994.11
2017-01-18T08:23:45.818Z,994.18
2017-01-18T08:24:54.500Z,994.16
2017-01-18T08:26:03.186Z,994.17
2017-01-18T08:27:11.884Z,994.17
2017-01-18T08:28:20.566Z,994.17
2017-01-18T08:29:29.306Z,994.14
2017-01-18T08:30:37.989Z,994.13
2017-01-18T08:31:46.675Z,994.15
2017-01-18T08:32:55.356Z,994.13
2017-01-18T08:34:04.046Z,994.08
2017-01-18T08:35:12.779Z,994.07
2017-01-18T08:36:21.469Z,994.11
2017-01-18T08:37:30.148Z,994.11
2017-01-18T08:38:38.834Z,994.11
2017-01-18T08:39:47.516Z,994.1
2017-01-18T08:40:56.245Z,994.09
2017-01-18T08:42:04.930Z,994.06
2017-01-18T08:43:13.636Z,994.1
2017-01-18T08:44:22.331Z,994.17
2017-01-18T08:45:31.012Z,994.15
2017-01-18T08:46:39.747Z,994.17
2017-01-18T08:47:48.434Z,994.14
2017-01-18T08:48:57.132Z,994.17
2017-01-18T08:50:05.812Z,994.16
2017-01-18T08:51:14.496Z,994.14
2017-01-18T08:52:23.644Z,994.11
2017-01-18T08:53:32.333Z,994.14
2017-01-18T08:54:41.014Z,994.18
2017-01-18T08:55:49.700Z,994.17
2017-01-18T08:56:58.385Z,994.13
2017-01-18T08:58:07.119Z,994.12
2017-01-18T08:59:15.800Z,994.13
2017-01-18T09:00:24.479Z,994.11
2017-01-18T09:01:33.158Z,994.12
2017-01-18T09:02:41.841Z,994.11
2017-01-18T09:03:50.579Z,994.14
2017-01-18T09:04:59.264Z,994.22
2017-01-18T09:06:07.980Z,994.2
2017-01-18T09:07:16.664Z,994.23
2017-01-18T09:08:25.345Z,994.22
2017-01-18T09:09:34.111Z,994.27
2017-01-18T09:10:42.790Z,994.29
2017-01-18T09:11:51.470Z,994.31
2017-01-18T09:13:00.151Z,994.26
2017-01-18T09:14:08.837Z,994.21
2017-01-18T09:15:17.565Z,994.22
2017-01-18T09:16:26.644Z,994.25
2017-01-18T09:17:35.356Z,994.27
2017-01-18T09:18:44.042Z,994.25
2017-01-18T09:19:52.729Z,994.3
2017-01-18T09:21:01.491Z,994.26
2017-01-18T09:22:10.180Z,994.27
2017-01-18T09:23:18.860Z,994.32
2017-01-18T09:24:27.545Z,994.34
2017-01-18T09:25:36.226Z,994.31
2017-01-18T09:26:44.963Z,994.4
2017-01-18T09:27:53.649Z,994.39
2017-01-18T09:29:02.337Z,994.43
2017-01-18T09:30:11.019Z,994.41
2017-01-18T09:31:19.707Z,994.4
2017-01-18T09:32:28.447Z,994.41
2017-01-18T09:33:37.137Z,994.41
2017-01-18T09:34:45.820Z,994.44
2017-01-18T09:35:54.507Z,994.48
2017-01-18T09:37:03.196Z,994.45
2017-01-18T09:38:12.405Z,994.4
2017-01-18T09:39:21.116Z,994.4
2017-01-18T09:40:29.797Z,994.36
2017-01-18T09:41:38.484Z,994.37
2017-01-18T09:42:47.175Z,994.39
2017-01-18T09:43:55.909Z,994.34
2017-01-18T09:45:04.593Z,994.37
2017-01-18T09:46:13.277Z,994.34
2017-01-18T09:47:21.966Z,994.37
2017-01-18T09:48:30.647Z,994.35
2017-01-18T09:49:39.403Z,994.36
2017-01-18T09:50:48.087Z,994.28
2017-01-18T09:51:56.768Z,994.32
2017-01-18T09:53:05.450Z,994.35
2017-01-18T09:54:14.165Z,994.3
2017-01-18T09:55:22.946Z,994.29
2017-01-18T09:56:31.630Z,994.28
2017-01-18T09:57:40.321Z,994.24
2017-01-18T09:58:49.016Z,994.27
2017-01-18T09:59:58.091Z,994.26
2017-01-18T10:01:07.125Z,994.22
2017-01-18T10:02:15.806Z,994.17
2017-01-18T10:03:24.491Z,994.14
2017-01-18T10:04:33.179Z,994.12
2017-01-18T10:05:41.863Z,994.19
2017-01-18T10:06:50.602Z,994.16
2017-01-18T10:07:59.282Z,994.21
2017-01-18T10:09:07.969Z,994.2
2017-01-18T10:10:16.682Z,994.2
2017-01-18T10:11:25.366Z,994.22
2017-01-18T10:12:34.101Z,994.16
2017-01-18T10:13:42.817Z,994.13
2017-01-18T10:14:51.506Z,994.2
2017-01-18T10:16:00.187Z,994.18
2017-01-18T10:17:08.887Z,994.16
2017-01-18T10:18:17.653Z,994.1
2017-01-18T10:19:26.341Z,994.07
2017-01-18T10:20:35.030Z,993.96
2017-01-18T10:21:43.713Z,993.99
2017-01-18T10:22:52.399Z,994
2017-01-18T10:24:01.150Z,993.98
2017-01-18T10:25:09.833Z,993.96
2017-01-18T10:26:18.515Z,993.89
2017-01-18T10:27:27.204Z,993.91
2017-01-18T10:28:35.913Z,993.93
2017-01-18T10:29:44.644Z,993.9
2017-01-18T10:30:53.353Z,993.89
2017-01-18T10:32:02.040Z,993.9
2017-01-18T10:33:10.725Z,993.95
2017-01-18T10:34:19.417Z,993.9
2017-01-18T10:35:28.159Z,993.95
2017-01-18T10:36:36.866Z,993.96
2017-01-18T10:37:45.552Z,993.93
2017-01-18T10:38:54.237Z,993.88
2017-01-18T10:40:03.318Z,993.77
2017-01-18T10:41:12.054Z,993.79
2017-01-18T10:42:20.740Z,993.7
2017-01-18T10:43:29.429Z,993.7
2017-01-18T10:44:38.112Z,993.72
2017-01-18T10:45:46.800Z,993.69
2017-01-18T10:46:55.536Z,993.75
2017-01-18T10:48:04.214Z,993.76
2017-01-18T10:49:12.898Z,993.75
2017-01-18T10:50:21.608Z,993.83
2017-01-18T10:51:30.314Z,993.85
2017-01-18T10:52:39.051Z,993.83
2017-01-18T10:53:47.736Z,993.88
2017-01-18T10:54:56.420Z,993.91
2017-01-18T10:56:05.105Z,993.81
2017-01-18T10:57:13.787Z,993.82
2017-01-18T10:58:22.518Z,993.82
2017-01-18T10:59:31.199Z,993.72
2017-01-18T11:00:39.886Z,993.76
2017-01-18T11:01:48.574Z,993.71
2017-01-18T11:02:57.257Z,993.74
2017-01-18T11:04:05.989Z,993.69
2017-01-18T11:05:14.675Z,993.59
2017-01-18T11:06:23.364Z,993.64
2017-01-18T11:07:32.093Z,993.59
2017-01-18T11:08:40.774Z,993.57
2017-01-18T11:09:49.508Z,993.58
2017-01-18T11:10:58.193Z,993.56
2017-01-18T11:12:06.909Z,993.56
2017-01-18T11:13:15.618Z,993.49
2017-01-18T11:14:24.296Z,993.52
2017-01-18T11:15:33.035Z,993.42
2017-01-18T11:16:41.720Z,993.38
2017-01-18T11:17:50.404Z,993.36
2017-01-18T11:18:59.086Z,993.38
2017-01-18T11:20:07.769Z,993.44
2017-01-18T11:21:16.515Z,993.39
2017-01-18T11:22:25.196Z,993.36
2017-01-18T11:23:33.882Z,993.4
2017-01-18T11:24:42.570Z,993.35
2017-01-18T11:25:51.257Z,993.35
2017-01-18T11:27:00.086Z,993.31
2017-01-18T11:28:08.774Z,993.26
2017-01-18T11:29:17.458Z,993.28
2017-01-18T11:30:26.144Z,993.25
2017-01-18T11:31:34.859Z,993.18
2017-01-18T11:32:43.595Z,993.17
2017-01-18T11:33:52.309Z,993.16
2017-01-18T11:35:00.996Z,993.22
2017-01-18T11:36:09.688Z,993.27
2017-01-18T11:37:18.374Z,993.32
2017-01-18T11:38:27.509Z,993.2
2017-01-18T11:39:36.194Z,993.17
2017-01-18T11:40:44.883Z,993.1
2017-01-18T11:41:53.570Z,993.09
2017-01-18T11:43:02.281Z,993.1
2017-01-18T11:44:10.961Z,993.07
2017-01-18T11:45:19.643Z,993.02
2017-01-18T11:46:28.329Z,993.02
2017-01-18T11:47:37.012Z,993.06
2017-01-18T11:48:45.694Z,993.04
2017-01-18T11:49:54.377Z,992.94
2017-01-18T11:51:03.069Z,992.99
2017-01-18T11:52:11.759Z,993.03
2017-01-18T11:53:20.441Z,993.03
2017-01-18T11:54:29.141Z,992.94
2017-01-18T11:55:37.823Z,992.95
2017-01-18T11:56:46.508Z,992.89
2017-01-18T11:57:55.192Z,992.94
2017-01-18T11:59:03.879Z,992.9
2017-01-18T12:00:12.564Z,992.96
2017-01-18T12:01:21.243Z,993.01
2017-01-18T12:02:29.925Z,993.05
2017-01-18T12:03:38.608Z,992.95
2017-01-18T12:04:47.292Z,992.91
2017-01-18T12:05:55.976Z,992.88
2017-01-18T12:07:04.667Z,992.87
2017-01-18T12:08:13.354Z,992.81
2017-01-18T12:09:22.041Z,992.85
2017-01-18T12:10:30.729Z,992.85
2017-01-18T12:11:39.421Z,992.81
2017-01-18T12:12:48.100Z,992.71
2017-01-18T12:13:56.788Z,992.66
2017-01-18T12:15:05.478Z,992.63
2017-01-18T12:16:14.170Z,992.6
2017-01-18T12:17:22.853Z,992.66
2017-01-18T12:18:31.541Z,992.65
2017-01-18T12:19:40.229Z,992.6
2017-01-18T12:20:48.918Z,992.55
2017-01-18T12:21:57.602Z,992.51
2017-01-18T12:23:06.285Z,992.45
2017-01-18T12:24:14.974Z,992.36
2017-01-18T12:25:23.660Z,992.34
2017-01-18T12:26:32.344Z,992.26
2017-01-18T12:27:41.052Z,992.2
2017-01-18T12:28:49.739Z,992.29
2017-01-18T12:29:58.420Z,992.4
2017-01-18T12:31:07.106Z,992.52
2017-01-18T12:32:15.798Z,992.51
2017-01-18T12:33:24.485Z,992.58
2017-01-18T12:34:33.168Z,992.6
2017-01-18T12:35:41.854Z,992.61
2017-01-18T12:36:50.538Z,992.61
2017-01-18T12:37:59.225Z,992.59
2017-01-18T12:39:07.928Z,992.52
2017-01-18T12:40:17.015Z,992.46
2017-01-18T12:41:25.701Z,992.45
2017-01-18T12:42:34.389Z,992.47
2017-01-18T12:43:43.078Z,992.37
2017-01-18T12:44:52.169Z,992.31
2017-01-18T12:46:00.855Z,992.22
2017-01-18T12:47:09.556Z,992.2
2017-01-18T12:48:18.245Z,992.2
2017-01-18T12:49:26.930Z,992.24
2017-01-18T12:50:35.618Z,992.31
2017-01-18T12:51:44.308Z,992.37
2017-01-18T12:52:52.993Z,992.37
2017-01-18T12:54:01.680Z,992.31
2017-01-18T12:55:10.368Z,992.33
2017-01-18T12:56:19.060Z,992.35
2017-01-18T12:57:27.752Z,992.34
2017-01-18T12:58:36.448Z,992.33
2017-01-18T12:59:45.135Z,992.32
2017-01-18T13:00:53.816Z,992.35
2017-01-18T13:02:02.517Z,992.28
2017-01-18T13:03:11.205Z,992.3
2017-01-18T13:04:19.893Z,992.28
2017-01-18T13:05:28.605Z,992.34
2017-01-18T13:06:37.290Z,992.36
2017-01-18T13:07:45.980Z,992.34
2017-01-18T13:08:54.666Z,992.34
2017-01-18T13:10:03.351Z,992.31
2017-01-18T13:11:12.038Z,992.19
2017-01-18T13:12:20.718Z,992.24
2017-01-18T13:13:29.398Z,992.23
2017-01-18T13:14:38.085Z,992.23
2017-01-18T13:15:46.775Z,992.19
2017-01-18T13:16:55.457Z,992.1
2017-01-18T13:18:04.171Z,991.97
2017-01-18T13:19:12.856Z,991.9
2017-01-18T13:20:21.538Z,991.96
2017-01-18T13:21:30.254Z,992.09
2017-01-18T13:22:38.965Z,992.01
2017-01-18T13:23:47.649Z,992.07
2017-01-18T13:24:56.329Z,992.03
2017-01-18T13:26:05.413Z,992.05
2017-01-18T13:27:14.100Z,992.04
2017-01-18T13:28:22.791Z,991.96
2017-01-18T13:29:31.476Z,992.02
2017-01-18T13:30:40.160Z,992.05
2017-01-18T13:31:48.847Z,991.99
2017-01-18T13:32:57.530Z,992.04
2017-01-18T13:34:06.214Z,992.11
2017-01-18T13:35:14.900Z,992.22
2017-01-18T13:36:23.587Z,992.21
2017-01-18T13:37:32.276Z,992.1
2017-01-18T13:38:40.956Z,992.05
2017-01-18T13:39:49.638Z,991.92
2017-01-18T13:40:58.326Z,991.99
2017-01-18T13:42:07.009Z,992.05
2017-01-18T13:43:15.691Z,992.03
2017-01-18T13:44:24.400Z,992.1
2017-01-18T13:45:33.083Z,992.16
2017-01-18T13:46:41.771Z,992.09
2017-01-18T13:47:50.452Z,992.05
2017-01-18T13:48:59.134Z,992.07
2017-01-18T13:50:07.820Z,992.04
2017-01-18T13:51:16.504Z,992.03
2017-01-18T13:52:25.186Z,992.06
2017-01-18T13:53:33.866Z,992.1
2017-01-18T13:54:42.546Z,992.06
2017-01-18T13:55:51.234Z,992.05
2017-01-18T13:56:59.918Z,991.99
2017-01-18T13:58:08.631Z,991.92
2017-01-18T13:59:17.318Z,991.9
2017-01-18T14:00:26.001Z,991.87
2017-01-18T14:01:34.692Z,991.91
2017-01-18T14:02:43.379Z,991.9
2017-01-18T14:03:52.062Z,991.98
2017-01-18T14:05:00.748Z,991.97
2017-01-18T14:06:09.438Z,991.98
2017-01-18T14:07:18.121Z,991.8
2017-01-18T14:08:26.807Z,991.68
2017-01-18T14:09:35.488Z,991.63
2017-01-18T14:10:44.172Z,991.71
2017-01-18T14:11:52.855Z,991.74
2017-01-18T14:13:01.541Z,991.85
2017-01-18T14:14:10.226Z,991.84
2017-01-18T14:15:18.905Z,991.72
2017-01-18T14:16:27.590Z,991.65
2017-01-18T14:17:36.279Z,991.62
2017-01-18T14:18:44.966Z,991.62
2017-01-18T14:19:53.650Z,991.57
2017-01-18T14:21:02.328Z,991.51